sensor_id;sensor_type;location;lat;lon;timestamp;pressure;altitude;pressure_sealevel;temperature;humidity
5753;BME280;2901;42.140;24.760;2023-02-17T00:00:52;100469.22;;;4.04;89.95
5753;BME280;2901;42.140;24.760;2023-02-17T00:03:17;100462.31;;;4.01;89.37
5753;BME280;2901;42.140;24.760;2023-02-17T00:05:43;100459.66;;;3.98;89.96
5753;BME280;2901;42.140;24.760;2023-02-17T00:08:08;100455.31;;;3.97;89.99
5753;BME280;2901;42.140;24.760;2023-02-17T00:10:33;100451.94;;;3.98;90.61
5753;BME280;2901;42.140;24.760;2023-02-17T00:12:59;100455.25;;;3.96;90.18
5753;BME280;2901;42.140;24.760;2023-02-17T00:15:24;100451.81;;;3.95;90.02
5753;BME280;2901;42.140;24.760;2023-02-17T00:17:49;100456.13;;;3.96;90.36
5753;BME280;2901;42.140;24.760;2023-02-17T00:20:15;100452.78;;;3.99;90.56
5753;BME280;2901;42.140;24.760;2023-02-17T00:22:40;100446.28;;;4.08;89.93
5753;BME280;2901;42.140;24.760;2023-02-17T00:25:06;100438.84;;;4.14;89.33
5753;BME280;2901;42.140;24.760;2023-02-17T00:27:31;100445.75;;;4.17;89.22
5753;BME280;2901;42.140;24.760;2023-02-17T00:29:56;100438.88;;;4.16;89.34
5753;BME280;2901;42.140;24.760;2023-02-17T00:32:22;100438.34;;;4.25;88.69
5753;BME280;2901;42.140;24.760;2023-02-17T00:34:47;100439.28;;;4.28;89.01
5753;BME280;2901;42.140;24.760;2023-02-17T00:37:13;100440.13;;;4.27;88.63
5753;BME280;2901;42.140;24.760;2023-02-17T00:39:38;100437.47;;;4.24;88.71
5753;BME280;2901;42.140;24.760;2023-02-17T00:42:03;100434.81;;;4.21;88.60
5753;BME280;2901;42.140;24.760;2023-02-17T00:44:29;100420.75;;;4.10;88.65
5753;BME280;2901;42.140;24.760;2023-02-17T00:46:54;100426.53;;;4.04;89.00
5753;BME280;2901;42.140;24.760;2023-02-17T00:49:24;100425.50;;;3.99;88.46
5753;BME280;2901;42.140;24.760;2023-02-17T00:51:50;100418.97;;;3.84;88.95
5753;BME280;2901;42.140;24.760;2023-02-17T00:54:16;100417.00;;;3.77;90.06
5753;BME280;2901;42.140;24.760;2023-02-17T00:56:42;100412.66;;;3.74;89.82
5753;BME280;2901;42.140;24.760;2023-02-17T00:59:08;100412.56;;;3.71;89.94
5753;BME280;2901;42.140;24.760;2023-02-17T01:01:34;100402.31;;;3.71;90.16
5753;BME280;2901;42.140;24.760;2023-02-17T01:04:00;100402.41;;;3.74;90.81
5753;BME280;2901;42.140;24.760;2023-02-17T01:06:34;100399.16;;;3.78;90.50
5753;BME280;2901;42.140;24.760;2023-02-17T01:09:00;100405.88;;;3.76;90.27
5753;BME280;2901;42.140;24.760;2023-02-17T01:11:28;100397.28;;;3.74;90.29
5753;BME280;2901;42.140;24.760;2023-02-17T01:13:54;100392.75;;;3.67;90.86
5753;BME280;2901;42.140;24.760;2023-02-17T01:16:23;100400.38;;;3.65;90.56
5753;BME280;2901;42.140;24.760;2023-02-17T01:18:49;100387.25;;;3.56;91.04
5753;BME280;2901;42.140;24.760;2023-02-17T01:21:16;100389.78;;;3.55;91.19
5753;BME280;2901;42.140;24.760;2023-02-17T01:23:42;100375.81;;;3.47;91.42
5753;BME280;2901;42.140;24.760;2023-02-17T01:26:12;100388.63;;;3.47;91.38
5753;BME280;2901;42.140;24.760;2023-02-17T01:28:37;100384.31;;;3.46;92.03
5753;BME280;2901;42.140;24.760;2023-02-17T01:31:07;100376.69;;;3.47;92.08
5753;BME280;2901;42.140;24.760;2023-02-17T01:33:32;100378.25;;;3.42;92.13
5753;BME280;2901;42.140;24.760;2023-02-17T01:36:02;100364.66;;;3.45;92.32
5753;BME280;2901;42.140;24.760;2023-02-17T01:38:28;100368.47;;;3.56;92.05
5753;BME280;2901;42.140;24.760;2023-02-17T01:40:54;100361.66;;;3.56;91.84
5753;BME280;2901;42.140;24.760;2023-02-17T01:43:20;100366.63;;;3.52;91.32
5753;BME280;2901;42.140;24.760;2023-02-17T01:48:20;100350.41;;;3.51;91.64
5753;BME280;2901;42.140;24.760;2023-02-17T01:50:51;100351.50;;;3.59;91.77
5753;BME280;2901;42.140;24.760;2023-02-17T01:53:22;100354.34;;;3.67;90.86
5753;BME280;2901;42.140;24.760;2023-02-17T01:55:49;100357.03;;;3.70;90.34
5753;BME280;2901;42.140;24.760;2023-02-17T01:58:18;100357.13;;;3.73;90.69
5753;BME280;2901;42.140;24.760;2023-02-17T02:00:45;100332.88;;;3.63;89.72
5753;BME280;2901;42.140;24.760;2023-02-17T02:03:13;100342.34;;;3.66;90.17
5753;BME280;2901;42.140;24.760;2023-02-17T02:05:40;100345.09;;;3.71;90.34
5753;BME280;2901;42.140;24.760;2023-02-17T02:08:07;100350.13;;;3.69;89.98
5753;BME280;2901;42.140;24.760;2023-02-17T02:10:33;100332.06;;;3.64;90.23
5753;BME280;2901;42.140;24.760;2023-02-17T02:12:59;100336.25;;;3.62;90.34
5753;BME280;2901;42.140;24.760;2023-02-17T02:15:28;100337.84;;;3.59;90.86
5753;BME280;2901;42.140;24.760;2023-02-17T02:34:25;100331.19;;;3.39;91.18
5753;BME280;2901;42.140;24.760;2023-02-17T02:39:27;100345.56;;;3.35;91.37
5753;BME280;2901;42.140;24.760;2023-02-17T02:42:07;100322.13;;;3.25;91.07
5753;BME280;2901;42.140;24.760;2023-02-17T02:44:34;100326.34;;;3.23;90.84
5753;BME280;2901;42.140;24.760;2023-02-17T02:47:02;100343.59;;;3.28;90.98
5753;BME280;2901;42.140;24.760;2023-02-17T02:49:29;100349.47;;;3.26;91.26
5753;BME280;2901;42.140;24.760;2023-02-17T02:52:19;100349.28;;;3.21;91.26
5753;BME280;2901;42.140;24.760;2023-02-17T03:00:55;100346.19;;;3.06;91.93
5753;BME280;2901;42.140;24.760;2023-02-17T03:03:40;100339.03;;;2.97;91.67
5753;BME280;2901;42.140;24.760;2023-02-17T03:06:12;100333.91;;;2.97;91.87
5753;BME280;2901;42.140;24.760;2023-02-17T03:08:49;100334.34;;;2.86;92.09
5753;BME280;2901;42.140;24.760;2023-02-17T03:11:22;100340.03;;;2.79;92.44
5753;BME280;2901;42.140;24.760;2023-02-17T03:14:01;100335.56;;;2.73;93.09
5753;BME280;2901;42.140;24.760;2023-02-17T03:16:27;100329.81;;;2.79;92.84
5753;BME280;2901;42.140;24.760;2023-02-17T03:18:52;100326.50;;;2.81;92.69
5753;BME280;2901;42.140;24.760;2023-02-17T03:21:18;100322.91;;;2.76;92.96
5753;BME280;2901;42.140;24.760;2023-02-17T03:23:43;100329.03;;;2.81;92.94
5753;BME280;2901;42.140;24.760;2023-02-17T03:26:09;100329.16;;;2.84;92.85
5753;BME280;2901;42.140;24.760;2023-02-17T03:28:34;100326.59;;;2.84;92.95
5753;BME280;2901;42.140;24.760;2023-02-17T03:30:59;100326.56;;;2.83;92.60
5753;BME280;2901;42.140;24.760;2023-02-17T03:33:25;100333.47;;;2.85;92.30
5753;BME280;2901;42.140;24.760;2023-02-17T03:35:50;100334.13;;;2.80;93.06
5753;BME280;2901;42.140;24.760;2023-02-17T03:38:16;100339.97;;;2.77;93.37
5753;BME280;2901;42.140;24.760;2023-02-17T03:40:41;100346.03;;;2.79;93.11
5753;BME280;2901;42.140;24.760;2023-02-17T03:43:06;100347.41;;;2.71;93.24
5753;BME280;2901;42.140;24.760;2023-02-17T03:45:35;100353.06;;;2.42;94.46
5753;BME280;2901;42.140;24.760;2023-02-17T03:48:00;100347.84;;;2.39;94.61
5753;BME280;2901;42.140;24.760;2023-02-17T03:50:25;100340.63;;;2.29;94.82
5753;BME280;2901;42.140;24.760;2023-02-17T03:52:51;100352.38;;;2.24;95.09
5753;BME280;2901;42.140;24.760;2023-02-17T03:55:16;100347.00;;;1.97;96.18
5753;BME280;2901;42.140;24.760;2023-02-17T03:57:42;100349.59;;;1.78;97.08
5753;BME280;2901;42.140;24.760;2023-02-17T04:00:08;100345.84;;;1.70;98.03
5753;BME280;2901;42.140;24.760;2023-02-17T04:02:33;100349.41;;;1.73;98.10
5753;BME280;2901;42.140;24.760;2023-02-17T04:04:59;100345.09;;;1.72;98.66
5753;BME280;2901;42.140;24.760;2023-02-17T04:07:24;100351.03;;;1.71;98.83
5753;BME280;2901;42.140;24.760;2023-02-17T04:09:49;100350.19;;;1.72;98.79
5753;BME280;2901;42.140;24.760;2023-02-17T04:12:15;100339.19;;;1.73;98.38
5753;BME280;2901;42.140;24.760;2023-02-17T04:14:40;100327.91;;;1.68;98.51
5753;BME280;2901;42.140;24.760;2023-02-17T04:17:05;100329.47;;;1.65;98.88
5753;BME280;2901;42.140;24.760;2023-02-17T04:19:31;100323.50;;;1.64;99.36
5753;BME280;2901;42.140;24.760;2023-02-17T04:21:56;100342.28;;;1.66;99.51
5753;BME280;2901;42.140;24.760;2023-02-17T04:24:22;100347.34;;;1.65;99.89
5753;BME280;2901;42.140;24.760;2023-02-17T04:26:47;100342.50;;;1.71;100.00
5753;BME280;2901;42.140;24.760;2023-02-17T04:29:12;100336.22;;;1.83;99.45
5753;BME280;2901;42.140;24.760;2023-02-17T04:31:38;100337.25;;;1.88;99.07
5753;BME280;2901;42.140;24.760;2023-02-17T04:34:03;100334.03;;;1.92;98.56
5753;BME280;2901;42.140;24.760;2023-02-17T04:36:28;100330.56;;;1.90;98.33
5753;BME280;2901;42.140;24.760;2023-02-17T04:38:54;100338.38;;;1.95;97.98
5753;BME280;2901;42.140;24.760;2023-02-17T04:41:19;100332.56;;;1.97;97.84
5753;BME280;2901;42.140;24.760;2023-02-17T04:43:44;100337.03;;;2.03;98.03
5753;BME280;2901;42.140;24.760;2023-02-17T04:46:10;100336.41;;;2.08;97.77
5753;BME280;2901;42.140;24.760;2023-02-17T04:48:36;100325.63;;;2.16;97.43
5753;BME280;2901;42.140;24.760;2023-02-17T04:51:02;100332.59;;;2.20;97.16
5753;BME280;2901;42.140;24.760;2023-02-17T04:53:27;100332.66;;;2.21;95.92
5753;BME280;2901;42.140;24.760;2023-02-17T04:55:53;100314.59;;;2.17;95.50
5753;BME280;2901;42.140;24.760;2023-02-17T04:58:18;100315.31;;;2.14;95.19
5753;BME280;2901;42.140;24.760;2023-02-17T05:00:48;100306.81;;;2.14;95.38
5753;BME280;2901;42.140;24.760;2023-02-17T05:03:14;100317.06;;;2.15;95.72
5753;BME280;2901;42.140;24.760;2023-02-17T05:05:39;100312.09;;;2.18;95.66
5753;BME280;2901;42.140;24.760;2023-02-17T05:08:05;100312.72;;;2.13;96.28
5753;BME280;2901;42.140;24.760;2023-02-17T05:10:30;100321.81;;;2.06;97.11
5753;BME280;2901;42.140;24.760;2023-02-17T05:12:56;100311.16;;;1.95;97.47
5753;BME280;2901;42.140;24.760;2023-02-17T05:15:21;100314.09;;;2.04;97.57
5753;BME280;2901;42.140;24.760;2023-02-17T05:17:46;100322.25;;;1.96;97.00
5753;BME280;2901;42.140;24.760;2023-02-17T05:20:12;100322.06;;;1.91;97.31
5753;BME280;2901;42.140;24.760;2023-02-17T05:22:37;100319.72;;;1.96;97.52
5753;BME280;2901;42.140;24.760;2023-02-17T05:25:03;100315.53;;;1.98;97.54
5753;BME280;2901;42.140;24.760;2023-02-17T05:27:29;100314.41;;;2.12;97.18
5753;BME280;2901;42.140;24.760;2023-02-17T05:29:54;100323.50;;;2.26;96.84
5753;BME280;2901;42.140;24.760;2023-02-17T05:32:21;100323.97;;;2.18;96.54
5753;BME280;2901;42.140;24.760;2023-02-17T05:34:47;100323.81;;;2.13;96.51
5753;BME280;2901;42.140;24.760;2023-02-17T05:37:12;100334.88;;;2.34;96.64
5753;BME280;2901;42.140;24.760;2023-02-17T05:39:38;100336.75;;;2.38;96.20
5753;BME280;2901;42.140;24.760;2023-02-17T05:42:03;100339.72;;;2.49;95.60
5753;BME280;2901;42.140;24.760;2023-02-17T05:44:28;100337.28;;;2.52;95.35
5753;BME280;2901;42.140;24.760;2023-02-17T05:46:54;100333.59;;;2.66;94.56
5753;BME280;2901;42.140;24.760;2023-02-17T05:49:19;100332.06;;;2.71;93.67
5753;BME280;2901;42.140;24.760;2023-02-17T05:51:45;100331.31;;;2.74;93.94
5753;BME280;2901;42.140;24.760;2023-02-17T05:54:10;100339.56;;;2.89;93.80
5753;BME280;2901;42.140;24.760;2023-02-17T05:56:35;100336.47;;;2.97;93.31
5753;BME280;2901;42.140;24.760;2023-02-17T05:59:01;100348.22;;;2.92;92.50
5753;BME280;2901;42.140;24.760;2023-02-17T06:01:26;100339.28;;;2.81;92.23
5753;BME280;2901;42.140;24.760;2023-02-17T06:03:52;100344.91;;;2.95;92.02
5753;BME280;2901;42.140;24.760;2023-02-17T06:06:17;100338.09;;;2.95;92.16
5753;BME280;2901;42.140;24.760;2023-02-17T06:08:43;100353.78;;;3.04;91.98
5753;BME280;2901;42.140;24.760;2023-02-17T06:11:08;100336.81;;;3.06;91.80
5753;BME280;2901;42.140;24.760;2023-02-17T06:13:34;100361.22;;;3.21;91.13
5753;BME280;2901;42.140;24.760;2023-02-17T06:15:59;100353.44;;;3.18;90.98
5753;BME280;2901;42.140;24.760;2023-02-17T06:18:25;100351.97;;;3.24;90.96
5753;BME280;2901;42.140;24.760;2023-02-17T06:20:54;100355.72;;;3.34;91.06
5753;BME280;2901;42.140;24.760;2023-02-17T06:23:20;100347.16;;;3.33;91.23
5753;BME280;2901;42.140;24.760;2023-02-17T06:25:45;100357.59;;;3.38;91.18
5753;BME280;2901;42.140;24.760;2023-02-17T06:28:11;100365.88;;;3.54;91.35
5753;BME280;2901;42.140;24.760;2023-02-17T06:30:36;100356.97;;;3.69;91.02
5753;BME280;2901;42.140;24.760;2023-02-17T06:33:02;100350.78;;;3.87;90.68
5753;BME280;2901;42.140;24.760;2023-02-17T06:35:27;100343.31;;;3.93;89.71
5753;BME280;2901;42.140;24.760;2023-02-17T06:37:53;100354.81;;;4.06;89.54
5753;BME280;2901;42.140;24.760;2023-02-17T06:40:18;100369.31;;;4.05;89.33
5753;BME280;2901;42.140;24.760;2023-02-17T06:42:44;100367.09;;;4.14;89.24
5753;BME280;2901;42.140;24.760;2023-02-17T06:45:09;100356.09;;;4.18;88.61
5753;BME280;2901;42.140;24.760;2023-02-17T06:47:34;100362.44;;;4.30;88.48
5753;BME280;2901;42.140;24.760;2023-02-17T06:50:00;100364.38;;;4.37;88.35
5753;BME280;2901;42.140;24.760;2023-02-17T06:52:26;100358.66;;;4.45;87.68
5753;BME280;2901;42.140;24.760;2023-02-17T06:54:51;100364.41;;;4.38;86.48
5753;BME280;2901;42.140;24.760;2023-02-17T06:57:16;100372.00;;;4.34;86.87
5753;BME280;2901;42.140;24.760;2023-02-17T06:59:42;100362.91;;;4.45;86.88
5753;BME280;2901;42.140;24.760;2023-02-17T07:02:11;100359.19;;;4.62;85.98
5753;BME280;2901;42.140;24.760;2023-02-17T07:04:38;100361.84;;;4.65;85.85
5753;BME280;2901;42.140;24.760;2023-02-17T07:07:04;100378.72;;;4.57;85.37
5753;BME280;2901;42.140;24.760;2023-02-17T07:09:29;100366.88;;;4.62;85.61
5753;BME280;2901;42.140;24.760;2023-02-17T07:11:54;100368.28;;;4.79;85.21
5753;BME280;2901;42.140;24.760;2023-02-17T07:14:22;100367.09;;;4.96;84.25
5753;BME280;2901;42.140;24.760;2023-02-17T07:16:48;100360.88;;;5.18;83.97
5753;BME280;2901;42.140;24.760;2023-02-17T07:19:13;100370.59;;;5.28;82.98
5753;BME280;2901;42.140;24.760;2023-02-17T07:21:38;100356.47;;;5.44;82.47
5753;BME280;2901;42.140;24.760;2023-02-17T07:24:04;100358.69;;;5.61;82.36
5753;BME280;2901;42.140;24.760;2023-02-17T07:26:29;100355.84;;;5.82;81.01
5753;BME280;2901;42.140;24.760;2023-02-17T07:28:55;100347.00;;;6.04;81.10
5753;BME280;2901;42.140;24.760;2023-02-17T07:31:20;100360.06;;;6.11;80.10
5753;BME280;2901;42.140;24.760;2023-02-17T07:33:46;100355.31;;;6.28;79.82
5753;BME280;2901;42.140;24.760;2023-02-17T07:36:14;100365.97;;;6.43;78.55
5753;BME280;2901;42.140;24.760;2023-02-17T07:38:41;100352.81;;;6.31;77.32
5753;BME280;2901;42.140;24.760;2023-02-17T07:41:11;100356.50;;;6.42;77.62
5753;BME280;2901;42.140;24.760;2023-02-17T07:43:37;100359.44;;;6.57;77.11
5753;BME280;2901;42.140;24.760;2023-02-17T07:46:03;100352.00;;;6.68;77.30
5753;BME280;2901;42.140;24.760;2023-02-17T07:48:29;100358.44;;;6.88;76.96
5753;BME280;2901;42.140;24.760;2023-02-17T07:50:54;100361.31;;;7.02;76.06
5753;BME280;2901;42.140;24.760;2023-02-17T07:53:20;100364.16;;;7.14;74.59
5753;BME280;2901;42.140;24.760;2023-02-17T07:55:45;100362.56;;;7.20;74.35
5753;BME280;2901;42.140;24.760;2023-02-17T07:58:10;100355.97;;;7.35;72.97
5753;BME280;2901;42.140;24.760;2023-02-17T08:00:36;100369.78;;;7.38;72.93
5753;BME280;2901;42.140;24.760;2023-02-17T08:03:01;100366.50;;;7.44;73.18
5753;BME280;2901;42.140;24.760;2023-02-17T08:05:27;100360.47;;;7.43;71.90
5753;BME280;2901;42.140;24.760;2023-02-17T08:07:52;100358.69;;;7.41;72.08
5753;BME280;2901;42.140;24.760;2023-02-17T08:10:37;100359.41;;;7.34;72.63
5753;BME280;2901;42.140;24.760;2023-02-17T08:13:22;100354.16;;;7.27;72.45
5753;BME280;2901;42.140;24.760;2023-02-17T08:15:47;100358.41;;;7.27;72.85
5753;BME280;2901;42.140;24.760;2023-02-17T08:18:13;100349.88;;;7.31;72.76
5753;BME280;2901;42.140;24.760;2023-02-17T08:20:38;100353.59;;;7.44;73.16
5753;BME280;2901;42.140;24.760;2023-02-17T08:23:03;100359.72;;;7.49;72.16
5753;BME280;2901;42.140;24.760;2023-02-17T08:25:33;100365.91;;;7.58;71.69
5753;BME280;2901;42.140;24.760;2023-02-17T08:27:59;100368.63;;;7.66;70.02
5753;BME280;2901;42.140;24.760;2023-02-17T08:30:25;100357.13;;;7.49;70.87
5753;BME280;2901;42.140;24.760;2023-02-17T08:32:50;100363.88;;;7.42;71.12
5753;BME280;2901;42.140;24.760;2023-02-17T08:35:16;100366.56;;;7.48;71.81
5753;BME280;2901;42.140;24.760;2023-02-17T08:37:43;100370.19;;;7.58;71.61
5753;BME280;2901;42.140;24.760;2023-02-17T08:40:09;100365.34;;;7.73;70.69
5753;BME280;2901;42.140;24.760;2023-02-17T08:42:35;100360.41;;;7.85;70.51
5753;BME280;2901;42.140;24.760;2023-02-17T08:45:01;100355.78;;;8.17;69.80
5753;BME280;2901;42.140;24.760;2023-02-17T08:47:26;100347.59;;;8.38;68.46
5753;BME280;2901;42.140;24.760;2023-02-17T08:49:51;100354.78;;;8.58;67.25
5753;BME280;2901;42.140;24.760;2023-02-17T08:52:17;100358.38;;;8.68;66.30
5753;BME280;2901;42.140;24.760;2023-02-17T08:54:42;100353.47;;;8.84;65.79
5753;BME280;2901;42.140;24.760;2023-02-17T08:57:07;100353.50;;;8.88;65.91
5753;BME280;2901;42.140;24.760;2023-02-17T08:59:33;100357.06;;;8.97;66.18
5753;BME280;2901;42.140;24.760;2023-02-17T09:01:58;100357.22;;;9.08;65.54
5753;BME280;2901;42.140;24.760;2023-02-17T09:04:24;100342.69;;;9.16;65.04
5753;BME280;2901;42.140;24.760;2023-02-17T09:06:52;100340.31;;;9.32;64.46
5753;BME280;2901;42.140;24.760;2023-02-17T09:09:21;100342.31;;;9.55;63.13
5753;BME280;2901;42.140;24.760;2023-02-17T09:11:47;100324.44;;;9.79;61.87
5753;BME280;2901;42.140;24.760;2023-02-17T09:14:13;100329.81;;;9.97;61.28
5753;BME280;2901;42.140;24.760;2023-02-17T09:16:39;100330.66;;;9.96;60.52
5753;BME280;2901;42.140;24.760;2023-02-17T09:19:04;100334.22;;;10.07;60.11
5753;BME280;2901;42.140;24.760;2023-02-17T09:21:30;100329.91;;;10.09;60.53
5753;BME280;2901;42.140;24.760;2023-02-17T09:23:56;100333.38;;;10.11;58.63
5753;BME280;2901;42.140;24.760;2023-02-17T09:26:22;100322.25;;;10.18;59.53
5753;BME280;2901;42.140;24.760;2023-02-17T09:28:48;100325.81;;;10.32;58.75
5753;BME280;2901;42.140;24.760;2023-02-17T09:31:17;100323.47;;;10.66;57.70
5753;BME280;2901;42.140;24.760;2023-02-17T09:33:44;100325.41;;;11.02;53.38
5753;BME280;2901;42.140;24.760;2023-02-17T09:36:14;100314.28;;;11.25;51.07
5753;BME280;2901;42.140;24.760;2023-02-17T09:38:40;100319.56;;;11.60;48.24
5753;BME280;2901;42.140;24.760;2023-02-17T09:41:16;100311.03;;;12.04;42.53
5753;BME280;2901;42.140;24.760;2023-02-17T09:43:42;100305.78;;;12.70;38.27
5753;BME280;2901;42.140;24.760;2023-02-17T09:46:20;100299.59;;;13.06;36.45
5753;BME280;2901;42.140;24.760;2023-02-17T09:48:48;100299.53;;;13.36;35.15
5753;BME280;2901;42.140;24.760;2023-02-17T09:51:20;100296.72;;;13.70;34.12
5753;BME280;2901;42.140;24.760;2023-02-17T09:53:53;100288.75;;;13.92;33.96
5753;BME280;2901;42.140;24.760;2023-02-17T09:56:30;100296.38;;;14.14;33.51
5753;BME280;2901;42.140;24.760;2023-02-17T09:59:25;100284.00;;;14.43;33.02
5753;BME280;2901;42.140;24.760;2023-02-17T10:01:50;100277.66;;;14.71;32.54
5753;BME280;2901;42.140;24.760;2023-02-17T10:04:20;100276.56;;;14.89;31.79
5753;BME280;2901;42.140;24.760;2023-02-17T10:06:54;100264.97;;;15.13;31.76
5753;BME280;2901;42.140;24.760;2023-02-17T10:09:54;100262.13;;;15.31;31.36
5753;BME280;2901;42.140;24.760;2023-02-17T10:12:31;100253.19;;;15.48;30.76
5753;BME280;2901;42.140;24.760;2023-02-17T10:15:13;100251.25;;;15.63;30.83
5753;BME280;2901;42.140;24.760;2023-02-17T10:20:27;100249.13;;;15.89;30.75
5753;BME280;2901;42.140;24.760;2023-02-17T10:23:15;100229.75;;;16.02;29.87
5753;BME280;2901;42.140;24.760;2023-02-17T10:34:12;100220.38;;;16.38;29.30
5753;BME280;2901;42.140;24.760;2023-02-17T10:36:59;100208.81;;;16.51;28.92
5753;BME280;2901;42.140;24.760;2023-02-17T10:41:54;100211.75;;;16.80;28.58
5753;BME280;2901;42.140;24.760;2023-02-17T10:44:22;100210.53;;;16.96;28.19
5753;BME280;2901;42.140;24.760;2023-02-17T10:46:50;100204.19;;;17.08;28.28
5753;BME280;2901;42.140;24.760;2023-02-17T10:49:33;100207.22;;;17.28;27.91
5753;BME280;2901;42.140;24.760;2023-02-17T10:52:12;100204.19;;;17.46;27.44
5753;BME280;2901;42.140;24.760;2023-02-17T10:55:00;100194.22;;;17.63;27.25
5753;BME280;2901;42.140;24.760;2023-02-17T10:57:32;100198.31;;;17.74;26.62
5753;BME280;2901;42.140;24.760;2023-02-17T10:59:59;100203.03;;;17.59;26.22
5753;BME280;2901;42.140;24.760;2023-02-17T11:02:36;100184.53;;;17.66;26.66
5753;BME280;2901;42.140;24.760;2023-02-17T11:05:04;100184.38;;;17.73;26.31
5753;BME280;2901;42.140;24.760;2023-02-17T11:07:54;100188.75;;;17.73;26.61
5753;BME280;2901;42.140;24.760;2023-02-17T11:10:25;100167.25;;;17.58;26.20
5753;BME280;2901;42.140;24.760;2023-02-17T11:12:51;100179.16;;;17.72;26.17
5753;BME280;2901;42.140;24.760;2023-02-17T11:15:19;100190.50;;;17.72;26.01
5753;BME280;2901;42.140;24.760;2023-02-17T11:17:46;100178.19;;;17.76;25.87
5753;BME280;2901;42.140;24.760;2023-02-17T11:22:43;100160.25;;;17.94;26.06
5753;BME280;2901;42.140;24.760;2023-02-17T11:25:33;100157.56;;;17.97;25.43
5753;BME280;2901;42.140;24.760;2023-02-17T11:28:05;100153.03;;;18.02;25.78
5753;BME280;2901;42.140;24.760;2023-02-17T11:30:33;100156.56;;;18.01;25.96
5753;BME280;2901;42.140;24.760;2023-02-17T11:33:14;100141.38;;;18.14;25.97
5753;BME280;2901;42.140;24.760;2023-02-17T11:38:14;100145.03;;;18.39;24.96
5753;BME280;2901;42.140;24.760;2023-02-17T11:40:40;;;;18.48;
5753;BME280;2901;42.140;24.760;2023-02-17T11:43:16;100121.34;;;18.42;23.03
5753;BME280;2901;42.140;24.760;2023-02-17T11:45:50;100137.09;;;18.42;23.40
5753;BME280;2901;42.140;24.760;2023-02-17T12:11:08;100118.59;;;18.78;22.42
5753;BME280;2901;42.140;24.760;2023-02-17T12:16:56;100113.44;;;18.75;22.21
5753;BME280;2901;42.140;24.760;2023-02-17T12:19:48;100112.72;;;18.70;22.16
5753;BME280;2901;42.140;24.760;2023-02-17T12:25:26;100118.94;;;18.67;22.11
5753;BME280;2901;42.140;24.760;2023-02-17T12:31:06;100104.78;;;18.71;22.10
5753;BME280;2901;42.140;24.760;2023-02-17T12:36:07;100109.13;;;18.74;21.73
5753;BME280;2901;42.140;24.760;2023-02-17T12:38:38;100097.25;;;18.90;20.99
5753;BME280;2901;42.140;24.760;2023-02-17T12:41:39;100095.84;;;19.06;21.23
5753;BME280;2901;42.140;24.760;2023-02-17T12:44:14;100079.28;;;19.04;20.72
5753;BME280;2901;42.140;24.760;2023-02-17T12:46:44;100086.25;;;19.05;21.00
5753;BME280;2901;42.140;24.760;2023-02-17T12:49:11;100080.38;;;18.97;21.18
5753;BME280;2901;42.140;24.760;2023-02-17T12:54:25;100082.00;;;19.01;21.72
5753;BME280;2901;42.140;24.760;2023-02-17T12:57:01;100084.06;;;18.91;21.59
5753;BME280;2901;42.140;24.760;2023-02-17T12:59:40;100086.84;;;18.87;21.67
5753;BME280;2901;42.140;24.760;2023-02-17T13:02:18;100084.16;;;18.88;21.95
5753;BME280;2901;42.140;24.760;2023-02-17T13:04:49;100077.25;;;18.86;22.05
5753;BME280;2901;42.140;24.760;2023-02-17T13:07:36;100087.41;;;18.96;21.36
5753;BME280;2901;42.140;24.760;2023-02-17T13:10:04;100083.16;;;18.92;21.29
5753;BME280;2901;42.140;24.760;2023-02-17T13:12:37;100094.94;;;18.79;21.45
5753;BME280;2901;42.140;24.760;2023-02-17T13:21:00;100088.00;;;19.04;20.98
5753;BME280;2901;42.140;24.760;2023-02-17T13:23:41;100094.75;;;19.13;21.44
5753;BME280;2901;42.140;24.760;2023-02-17T13:26:13;100089.66;;;19.08;21.48
5753;BME280;2901;42.140;24.760;2023-02-17T13:28:41;100086.16;;;19.08;21.71
5753;BME280;2901;42.140;24.760;2023-02-17T13:31:17;100097.63;;;19.05;22.08
5753;BME280;2901;42.140;24.760;2023-02-17T13:33:54;100086.75;;;18.90;22.33
5753;BME280;2901;42.140;24.760;2023-02-17T13:38:58;100086.31;;;18.76;22.49
5753;BME280;2901;42.140;24.760;2023-02-17T13:41:25;100087.19;;;18.75;22.65
5753;BME280;2901;42.140;24.760;2023-02-17T13:43:51;100083.78;;;18.73;22.77
5753;BME280;2901;42.140;24.760;2023-02-17T13:46:25;100087.38;;;18.69;22.86
5753;BME280;2901;42.140;24.760;2023-02-17T13:49:03;100084.84;;;18.65;23.21
5753;BME280;2901;42.140;24.760;2023-02-17T13:51:31;100083.13;;;18.64;22.71
5753;BME280;2901;42.140;24.760;2023-02-17T13:54:04;100085.06;;;18.58;22.63
5753;BME280;2901;42.140;24.760;2023-02-17T13:56:30;100075.66;;;18.51;21.97
5753;BME280;2901;42.140;24.760;2023-02-17T13:59:15;100080.69;;;18.58;21.99
5753;BME280;2901;42.140;24.760;2023-02-17T14:01:45;100072.81;;;18.58;22.16
5753;BME280;2901;42.140;24.760;2023-02-17T14:04:40;100085.03;;;18.59;22.35
5753;BME280;2901;42.140;24.760;2023-02-17T14:07:09;100068.16;;;18.68;22.71
5753;BME280;2901;42.140;24.760;2023-02-17T14:09:35;100066.25;;;18.73;22.34
5753;BME280;2901;42.140;24.760;2023-02-17T14:12:06;100071.50;;;18.73;22.60
5753;BME280;2901;42.140;24.760;2023-02-17T14:14:34;100082.44;;;18.58;22.71
5753;BME280;2901;42.140;24.760;2023-02-17T14:17:01;100071.84;;;18.62;22.71
5753;BME280;2901;42.140;24.760;2023-02-17T14:19:27;100073.66;;;18.60;22.78
5753;BME280;2901;42.140;24.760;2023-02-17T14:21:59;100065.81;;;18.59;22.73
5753;BME280;2901;42.140;24.760;2023-02-17T14:24:27;100071.84;;;18.62;22.98
5753;BME280;2901;42.140;24.760;2023-02-17T14:27:02;100068.44;;;18.59;23.27
5753;BME280;2901;42.140;24.760;2023-02-17T14:29:39;100070.97;;;18.62;23.67
5753;BME280;2901;42.140;24.760;2023-02-17T14:32:05;100072.38;;;18.74;23.85
5753;BME280;2901;42.140;24.760;2023-02-17T14:34:33;100077.78;;;18.67;23.93
5753;BME280;2901;42.140;24.760;2023-02-17T14:37:22;100087.59;;;18.61;23.45
5753;BME280;2901;42.140;24.760;2023-02-17T14:39:47;100090.50;;;18.52;23.69
5753;BME280;2901;42.140;24.760;2023-02-17T14:42:13;100083.41;;;18.55;24.09
5753;BME280;2901;42.140;24.760;2023-02-17T14:44:38;100086.16;;;18.51;24.15
5753;BME280;2901;42.140;24.760;2023-02-17T14:47:05;100082.69;;;18.50;24.19